Terminal Aerodrome Forecast
Issued by NWS Missoula, MT

Home | Current Version | Previous Version | Text Only | Print | Product List | Glossary On
Versions: 1 2 3 4 5 6 7 8 9 10 11 12 13 14 15 16
066
FTUS45 KMSO 282325
TAFBTM
TAF
KBTM 282325Z 2900/2924 31008KT P6SM SCT090
     FM290300 VRB05KT P6SM FEW120
     FM292100 27010KT P6SM BKN100=

USA.gov is the U.S. government's official web portal to all federal, state and local government web resources and services.